sensor_id;sensor_type;location;lat;lon;timestamp;pressure;altitude;pressure_sealevel;temperature;humidity
71948;BME280;63257;55.082;38.772;2023-11-22T00:01:04;99663.78;;;-9.10;75.66
71948;BME280;63257;55.082;38.772;2023-11-22T00:03:30;99645.88;;;-9.10;75.50
71948;BME280;63257;55.082;38.772;2023-11-22T00:05:57;99669.91;;;-9.01;75.52
71948;BME280;63257;55.082;38.772;2023-11-22T00:08:23;99659.81;;;-8.97;75.36
71948;BME280;63257;55.082;38.772;2023-11-22T00:10:49;99632.28;;;-9.07;75.64
71948;BME280;63257;55.082;38.772;2023-11-22T00:13:15;99663.50;;;-8.82;75.04
71948;BME280;63257;55.082;38.772;2023-11-22T00:15:42;99659.19;;;-8.85;75.41
71948;BME280;63257;55.082;38.772;2023-11-22T00:18:07;99646.31;;;-8.90;75.48
71948;BME280;63257;55.082;38.772;2023-11-22T00:20:33;99650.06;;;-8.72;75.15
71948;BME280;63257;55.082;38.772;2023-11-22T00:23:00;99647.41;;;-8.77;75.01
71948;BME280;63257;55.082;38.772;2023-11-22T00:25:25;99631.03;;;-8.85;75.28
71948;BME280;63257;55.082;38.772;2023-11-22T00:27:51;99624.22;;;-8.86;74.91
71948;BME280;63257;55.082;38.772;2023-11-22T00:30:17;99654.25;;;-8.76;75.12
71948;BME280;63257;55.082;38.772;2023-11-22T00:32:45;99648.56;;;-8.61;75.06
71948;BME280;63257;55.082;38.772;2023-11-22T00:35:11;99643.47;;;-8.59;74.67
71948;BME280;63257;55.082;38.772;2023-11-22T00:37:38;99645.09;;;-8.64;74.93
71948;BME280;63257;55.082;38.772;2023-11-22T00:40:05;99653.56;;;-8.67;75.19
71948;BME280;63257;55.082;38.772;2023-11-22T00:42:37;99656.09;;;-8.68;74.84
71948;BME280;63257;55.082;38.772;2023-11-22T00:45:06;99656.97;;;-8.68;75.19
71948;BME280;63257;55.082;38.772;2023-11-22T00:47:33;99654.41;;;-8.70;74.93
71948;BME280;63257;55.082;38.772;2023-11-22T00:49:59;99627.06;;;-8.71;74.72
71948;BME280;63257;55.082;38.772;2023-11-22T00:52:26;99621.81;;;-8.77;74.68
71948;BME280;63257;55.082;38.772;2023-11-22T00:54:53;99626.28;;;-8.66;74.94
71948;BME280;63257;55.082;38.772;2023-11-22T00:57:19;99635.75;;;-8.62;74.52
71948;BME280;63257;55.082;38.772;2023-11-22T00:59:45;99597.78;;;-8.85;74.79
71948;BME280;63257;55.082;38.772;2023-11-22T01:02:11;99620.00;;;-8.82;74.95
71948;BME280;63257;55.082;38.772;2023-11-22T01:04:37;99647.66;;;-8.64;75.17
71948;BME280;63257;55.082;38.772;2023-11-22T01:07:04;99640.75;;;-8.67;75.05
71948;BME280;63257;55.082;38.772;2023-11-22T01:09:32;99657.09;;;-8.62;74.70
71948;BME280;63257;55.082;38.772;2023-11-22T01:11:59;99620.94;;;-8.79;74.90
71948;BME280;63257;55.082;38.772;2023-11-22T01:14:25;99656.22;;;-8.62;74.91
71948;BME280;63257;55.082;38.772;2023-11-22T01:16:52;99643.28;;;-8.70;75.13
71948;BME280;63257;55.082;38.772;2023-11-22T01:19:20;99627.81;;;-8.76;74.93
71948;BME280;63257;55.082;38.772;2023-11-22T01:21:47;99646.78;;;-8.65;74.48
71948;BME280;63257;55.082;38.772;2023-11-22T01:24:13;99632.94;;;-8.76;74.64
71948;BME280;63257;55.082;38.772;2023-11-22T01:26:39;99667.25;;;-8.65;74.68
71948;BME280;63257;55.082;38.772;2023-11-22T01:29:05;99656.97;;;-8.68;75.04
71948;BME280;63257;55.082;38.772;2023-11-22T01:31:31;99665.34;;;-8.75;75.29
71948;BME280;63257;55.082;38.772;2023-11-22T01:33:59;99663.41;;;-8.87;75.58
71948;BME280;63257;55.082;38.772;2023-11-22T01:36:26;99669.78;;;-8.66;75.08
71948;BME280;63257;55.082;38.772;2023-11-22T01:38:54;99663.69;;;-8.73;74.96
71948;BME280;63257;55.082;38.772;2023-11-22T01:41:22;99649.72;;;-8.89;75.19
71948;BME280;63257;55.082;38.772;2023-11-22T01:43:48;99640.19;;;-8.96;75.21
71948;BME280;63257;55.082;38.772;2023-11-22T01:46:22;99665.16;;;-8.86;75.67
71948;BME280;63257;55.082;38.772;2023-11-22T01:48:53;99659.28;;;-8.80;75.39
71948;BME280;63257;55.082;38.772;2023-11-22T01:51:23;99668.84;;;-8.72;75.33
71948;BME280;63257;55.082;38.772;2023-11-22T01:53:53;99648.38;;;-8.72;74.94
71948;BME280;63257;55.082;38.772;2023-11-22T01:56:22;99634.63;;;-8.75;74.95
71948;BME280;63257;55.082;38.772;2023-11-22T01:58:49;99663.03;;;-8.63;74.92
71948;BME280;63257;55.082;38.772;2023-11-22T02:01:16;99661.34;;;-8.62;74.67
71948;BME280;63257;55.082;38.772;2023-11-22T02:03:42;99648.25;;;-8.78;75.00
71948;BME280;63257;55.082;38.772;2023-11-22T02:06:09;99658.63;;;-8.70;74.56
71948;BME280;63257;55.082;38.772;2023-11-22T02:08:37;99672.38;;;-8.65;74.55
71948;BME280;63257;55.082;38.772;2023-11-22T02:11:05;99672.44;;;-8.62;74.69
71948;BME280;63257;55.082;38.772;2023-11-22T02:13:32;99670.56;;;-8.71;75.17
71948;BME280;63257;55.082;38.772;2023-11-22T02:16:01;99652.44;;;-8.81;75.18
71948;BME280;63257;55.082;38.772;2023-11-22T02:18:29;99635.28;;;-8.87;75.29
71948;BME280;63257;55.082;38.772;2023-11-22T02:20:57;99654.19;;;-8.79;75.33
71948;BME280;63257;55.082;38.772;2023-11-22T02:23:23;99663.56;;;-8.79;75.33
71948;BME280;63257;55.082;38.772;2023-11-22T02:25:50;99657.47;;;-8.86;75.64
71948;BME280;63257;55.082;38.772;2023-11-22T02:28:16;99655.69;;;-8.90;75.58
71948;BME280;63257;55.082;38.772;2023-11-22T02:30:43;99656.88;;;-8.73;75.20
71948;BME280;63257;55.082;38.772;2023-11-22T02:33:09;99642.19;;;-8.83;75.09
71948;BME280;63257;55.082;38.772;2023-11-22T02:35:35;99647.25;;;-8.86;75.00
71948;BME280;63257;55.082;38.772;2023-11-22T02:38:01;99642.44;;;-8.71;75.21
71948;BME280;63257;55.082;38.772;2023-11-22T02:40:28;99664.78;;;-8.60;74.34
71948;BME280;63257;55.082;38.772;2023-11-22T02:42:54;99668.31;;;-8.55;74.36
71948;BME280;63257;55.082;38.772;2023-11-22T02:45:25;99655.47;;;-8.58;74.53
71948;BME280;63257;55.082;38.772;2023-11-22T02:47:51;99654.56;;;-8.59;74.02
71948;BME280;63257;55.082;38.772;2023-11-22T02:50:18;99665.91;;;-8.47;74.11
71948;BME280;63257;55.082;38.772;2023-11-22T02:52:44;99659.97;;;-8.45;73.87
71948;BME280;63257;55.082;38.772;2023-11-22T02:55:10;99663.25;;;-8.50;73.58
71948;BME280;63257;55.082;38.772;2023-11-22T02:57:37;99665.78;;;-8.54;74.37
71948;BME280;63257;55.082;38.772;2023-11-22T03:00:07;99643.56;;;-8.55;73.76
71948;BME280;63257;55.082;38.772;2023-11-22T03:02:34;99635.81;;;-8.59;74.02
71948;BME280;63257;55.082;38.772;2023-11-22T03:05:01;99676.22;;;-8.41;74.13
71948;BME280;63257;55.082;38.772;2023-11-22T03:07:29;99696.69;;;-8.41;74.36
71948;BME280;63257;55.082;38.772;2023-11-22T03:09:55;99667.59;;;-8.46;73.97
71948;BME280;63257;55.082;38.772;2023-11-22T03:12:21;99669.25;;;-8.51;73.84
71948;BME280;63257;55.082;38.772;2023-11-22T03:14:47;99665.75;;;-8.55;74.08
71948;BME280;63257;55.082;38.772;2023-11-22T03:17:17;99673.81;;;-8.33;73.99
71948;BME280;63257;55.082;38.772;2023-11-22T03:19:43;99660.84;;;-8.41;73.94
71948;BME280;63257;55.082;38.772;2023-11-22T03:22:10;99673.88;;;-8.29;73.72
71948;BME280;63257;55.082;38.772;2023-11-22T03:24:36;99677.44;;;-8.21;73.49
71948;BME280;63257;55.082;38.772;2023-11-22T03:27:05;99676.16;;;-8.47;73.45
71948;BME280;63257;55.082;38.772;2023-11-22T03:29:32;99674.59;;;-8.36;72.53
71948;BME280;63257;55.082;38.772;2023-11-22T03:31:59;99653.88;;;-8.51;73.48
71948;BME280;63257;55.082;38.772;2023-11-22T03:34:25;99653.97;;;-8.47;73.20
71948;BME280;63257;55.082;38.772;2023-11-22T03:36:50;99648.66;;;-8.56;73.73
71948;BME280;63257;55.082;38.772;2023-11-22T03:39:17;99665.91;;;-8.47;73.68
71948;BME280;63257;55.082;38.772;2023-11-22T03:41:43;99691.53;;;-8.44;74.07
71948;BME280;63257;55.082;38.772;2023-11-22T03:44:09;99688.72;;;-8.58;74.85
71948;BME280;63257;55.082;38.772;2023-11-22T03:46:36;99665.72;;;-8.57;74.98
71948;BME280;63257;55.082;38.772;2023-11-22T03:49:05;99680.16;;;-8.59;74.88
71948;BME280;63257;55.082;38.772;2023-11-22T03:51:35;99655.34;;;-8.63;74.85
71948;BME280;63257;55.082;38.772;2023-11-22T03:54:02;99685.66;;;-8.39;74.51
71948;BME280;63257;55.082;38.772;2023-11-22T03:56:28;99676.00;;;-8.54;74.82
71948;BME280;63257;55.082;38.772;2023-11-22T03:58:55;99681.06;;;-8.58;75.18
71948;BME280;63257;55.082;38.772;2023-11-22T04:01:20;99650.38;;;-8.57;75.20
71948;BME280;63257;55.082;38.772;2023-11-22T04:03:47;99675.59;;;-8.29;74.92
71948;BME280;63257;55.082;38.772;2023-11-22T04:06:17;99676.25;;;-8.40;74.80
71948;BME280;63257;55.082;38.772;2023-11-22T04:08:45;99687.41;;;-8.36;74.96
71948;BME280;63257;55.082;38.772;2023-11-22T04:11:12;99688.41;;;-8.29;74.76
71948;BME280;63257;55.082;38.772;2023-11-22T04:13:38;99694.38;;;-8.27;75.13
71948;BME280;63257;55.082;38.772;2023-11-22T04:16:08;99666.09;;;-8.35;74.85
71948;BME280;63257;55.082;38.772;2023-11-22T04:18:35;99676.25;;;-8.38;74.92
71948;BME280;63257;55.082;38.772;2023-11-22T04:21:03;99666.84;;;-8.41;75.42
71948;BME280;63257;55.082;38.772;2023-11-22T04:23:33;99686.47;;;-8.40;75.28
71948;BME280;63257;55.082;38.772;2023-11-22T04:26:00;99681.66;;;-8.24;75.08
71948;BME280;63257;55.082;38.772;2023-11-22T04:28:27;99662.84;;;-8.26;74.56
71948;BME280;63257;55.082;38.772;2023-11-22T04:30:53;99703.78;;;-8.28;75.04
71948;BME280;63257;55.082;38.772;2023-11-22T04:33:19;99659.75;;;-8.57;74.76
71948;BME280;63257;55.082;38.772;2023-11-22T04:35:47;99682.13;;;-8.47;75.73
71948;BME280;63257;55.082;38.772;2023-11-22T04:38:13;99683.25;;;-8.31;75.94
71948;BME280;63257;55.082;38.772;2023-11-22T04:40:38;99690.28;;;-8.19;75.65
71948;BME280;63257;55.082;38.772;2023-11-22T04:43:04;99681.56;;;-8.29;75.85
71948;BME280;63257;55.082;38.772;2023-11-22T04:45:30;99691.19;;;-8.17;75.22
71948;BME280;63257;55.082;38.772;2023-11-22T04:47:56;99685.91;;;-8.25;75.36
71948;BME280;63257;55.082;38.772;2023-11-22T04:50:23;99686.88;;;-8.20;75.49
71948;BME280;63257;55.082;38.772;2023-11-22T04:52:52;99687.72;;;-8.19;75.47
71948;BME280;63257;55.082;38.772;2023-11-22T04:55:18;99697.19;;;-8.15;75.77
71948;BME280;63257;55.082;38.772;2023-11-22T04:57:50;99696.16;;;-8.23;76.25
71948;BME280;63257;55.082;38.772;2023-11-22T05:00:16;99682.38;;;-8.31;76.25
71948;BME280;63257;55.082;38.772;2023-11-22T05:02:43;99696.47;;;-8.08;75.83
71948;BME280;63257;55.082;38.772;2023-11-22T05:05:09;99695.00;;;-7.93;75.25
71948;BME280;63257;55.082;38.772;2023-11-22T05:07:38;99711.28;;;-7.91;74.61
71948;BME280;63257;55.082;38.772;2023-11-22T05:10:05;99705.00;;;-8.07;75.15
71948;BME280;63257;55.082;38.772;2023-11-22T05:12:31;99706.72;;;-8.08;75.00
71948;BME280;63257;55.082;38.772;2023-11-22T05:14:57;99701.44;;;-8.15;75.18
71948;BME280;63257;55.082;38.772;2023-11-22T05:17:23;99692.00;;;-8.18;75.69
71948;BME280;63257;55.082;38.772;2023-11-22T05:19:49;99685.94;;;-8.23;75.09
71948;BME280;63257;55.082;38.772;2023-11-22T05:22:16;99728.00;;;-8.12;74.93
71948;BME280;63257;55.082;38.772;2023-11-22T05:24:42;99710.91;;;-8.11;75.51
71948;BME280;63257;55.082;38.772;2023-11-22T05:27:08;99704.25;;;-8.02;75.20
71948;BME280;63257;55.082;38.772;2023-11-22T05:29:35;99702.50;;;-8.04;75.10
71948;BME280;63257;55.082;38.772;2023-11-22T05:32:02;99698.13;;;-8.10;74.95
71948;BME280;63257;55.082;38.772;2023-11-22T05:34:29;99698.09;;;-8.13;74.53
71948;BME280;63257;55.082;38.772;2023-11-22T05:36:55;99697.38;;;-8.04;74.72
71948;BME280;63257;55.082;38.772;2023-11-22T05:39:21;99709.22;;;-8.11;74.11
71948;BME280;63257;55.082;38.772;2023-11-22T05:41:51;99722.13;;;-8.05;74.73
71948;BME280;63257;55.082;38.772;2023-11-22T05:44:17;99727.13;;;-8.11;74.75
71948;BME280;63257;55.082;38.772;2023-11-22T05:46:42;99712.78;;;-8.03;73.73
71948;BME280;63257;55.082;38.772;2023-11-22T05:49:08;99705.06;;;-8.04;74.49
71948;BME280;63257;55.082;38.772;2023-11-22T05:51:37;99708.28;;;-8.16;73.92
71948;BME280;63257;55.082;38.772;2023-11-22T05:54:04;99726.34;;;-8.07;73.96
71948;BME280;63257;55.082;38.772;2023-11-22T05:56:30;99715.78;;;-8.25;73.97
71948;BME280;63257;55.082;38.772;2023-11-22T05:58:57;99723.56;;;-8.19;73.88
71948;BME280;63257;55.082;38.772;2023-11-22T06:01:25;99716.84;;;-8.14;74.13
71948;BME280;63257;55.082;38.772;2023-11-22T06:03:54;99718.59;;;-8.11;73.74
71948;BME280;63257;55.082;38.772;2023-11-22T06:06:20;99736.47;;;-8.14;74.03
71948;BME280;63257;55.082;38.772;2023-11-22T06:08:47;99731.56;;;-8.04;73.86
71948;BME280;63257;55.082;38.772;2023-11-22T06:11:14;99726.56;;;-7.94;73.41
71948;BME280;63257;55.082;38.772;2023-11-22T06:13:41;99710.72;;;-8.22;73.45
71948;BME280;63257;55.082;38.772;2023-11-22T06:16:13;99710.72;;;-8.22;73.42
71948;BME280;63257;55.082;38.772;2023-11-22T06:18:40;99719.59;;;-8.03;72.99
71948;BME280;63257;55.082;38.772;2023-11-22T06:21:10;99696.63;;;-7.98;72.43
71948;BME280;63257;55.082;38.772;2023-11-22T06:23:36;99686.88;;;-8.20;72.41
71948;BME280;63257;55.082;38.772;2023-11-22T06:26:02;99726.78;;;-7.82;72.56
71948;BME280;63257;55.082;38.772;2023-11-22T06:28:28;99691.19;;;-8.17;71.59
71948;BME280;63257;55.082;38.772;2023-11-22T06:30:55;99691.31;;;-8.09;71.70
71948;BME280;63257;55.082;38.772;2023-11-22T06:33:22;99723.25;;;-7.89;72.05
71948;BME280;63257;55.082;38.772;2023-11-22T06:35:48;99719.66;;;-8.00;72.27
71948;BME280;63257;55.082;38.772;2023-11-22T06:38:14;99726.56;;;-7.96;72.51
71948;BME280;63257;55.082;38.772;2023-11-22T06:40:40;99719.78;;;-7.94;72.57
71948;BME280;63257;55.082;38.772;2023-11-22T06:43:06;99726.66;;;-7.91;72.73
71948;BME280;63257;55.082;38.772;2023-11-22T06:45:32;99726.72;;;-7.88;72.65
71948;BME280;63257;55.082;38.772;2023-11-22T06:47:58;99732.59;;;-7.92;73.27
71948;BME280;63257;55.082;38.772;2023-11-22T06:50:24;99707.56;;;-8.07;72.78
71948;BME280;63257;55.082;38.772;2023-11-22T06:52:50;99750.38;;;-8.02;72.60
71948;BME280;63257;55.082;38.772;2023-11-22T06:55:18;99733.34;;;-7.99;72.55
71948;BME280;63257;55.082;38.772;2023-11-22T06:57:44;99736.50;;;-8.13;71.41
71948;BME280;63257;55.082;38.772;2023-11-22T07:00:11;99722.44;;;-8.35;70.63
71948;BME280;63257;55.082;38.772;2023-11-22T07:02:38;99726.28;;;-8.11;69.69
71948;BME280;63257;55.082;38.772;2023-11-22T07:05:07;99743.91;;;-8.28;69.12
71948;BME280;63257;55.082;38.772;2023-11-22T07:07:36;99745.59;;;-8.27;69.10
71948;BME280;63257;55.082;38.772;2023-11-22T07:10:02;99753.41;;;-8.21;69.51
71948;BME280;63257;55.082;38.772;2023-11-22T07:12:32;99750.75;;;-8.26;69.95
71948;BME280;63257;55.082;38.772;2023-11-22T07:15:01;99746.06;;;-8.50;70.12
71948;BME280;63257;55.082;38.772;2023-11-22T07:17:32;99751.38;;;-8.39;70.80
71948;BME280;63257;55.082;38.772;2023-11-22T07:19:59;99735.03;;;-8.47;70.74
71948;BME280;63257;55.082;38.772;2023-11-22T07:22:27;99762.38;;;-8.45;70.15
71948;BME280;63257;55.082;38.772;2023-11-22T07:24:55;99759.34;;;-8.24;70.18
71948;BME280;63257;55.082;38.772;2023-11-22T07:27:25;99761.41;;;-8.04;69.46
71948;BME280;63257;55.082;38.772;2023-11-22T07:29:51;99760.22;;;-8.22;69.31
71948;BME280;63257;55.082;38.772;2023-11-22T07:32:18;99719.91;;;-8.33;69.11
71948;BME280;63257;55.082;38.772;2023-11-22T07:34:46;99751.50;;;-8.31;68.81
71948;BME280;63257;55.082;38.772;2023-11-22T07:37:13;99754.69;;;-8.45;69.57
71948;BME280;63257;55.082;38.772;2023-11-22T07:39:40;99753.94;;;-8.38;69.96
71948;BME280;63257;55.082;38.772;2023-11-22T07:42:08;99767.53;;;-8.42;68.83
71948;BME280;63257;55.082;38.772;2023-11-22T07:44:35;99747.09;;;-8.39;69.58
71948;BME280;63257;55.082;38.772;2023-11-22T07:47:04;99740.38;;;-8.33;69.62
71948;BME280;63257;55.082;38.772;2023-11-22T07:49:35;99759.50;;;-8.16;69.23
71948;BME280;63257;55.082;38.772;2023-11-22T07:52:05;99754.72;;;-7.97;68.39
71948;BME280;63257;55.082;38.772;2023-11-22T07:54:33;99760.88;;;-7.88;68.51
71948;BME280;63257;55.082;38.772;2023-11-22T07:57:01;99741.75;;;-8.05;68.53
71948;BME280;63257;55.082;38.772;2023-11-22T07:59:27;99766.78;;;-7.90;69.70
71948;BME280;63257;55.082;38.772;2023-11-22T08:01:53;99768.56;;;-7.88;69.32
71948;BME280;63257;55.082;38.772;2023-11-22T08:04:19;99757.28;;;-7.97;69.98
71948;BME280;63257;55.082;38.772;2023-11-22T08:06:45;99767.13;;;-8.18;70.07
71948;BME280;63257;55.082;38.772;2023-11-22T08:09:12;99775.34;;;-7.91;70.18
71948;BME280;63257;55.082;38.772;2023-11-22T08:11:38;99792.38;;;-7.93;70.18
71948;BME280;63257;55.082;38.772;2023-11-22T08:14:04;99769.50;;;-7.84;70.34
71948;BME280;63257;55.082;38.772;2023-11-22T08:16:31;99765.19;;;-7.85;68.92
71948;BME280;63257;55.082;38.772;2023-11-22T08:18:58;99764.13;;;-7.96;68.02
71948;BME280;63257;55.082;38.772;2023-11-22T08:21:24;99766.50;;;-8.06;68.51
71948;BME280;63257;55.082;38.772;2023-11-22T08:23:51;99768.09;;;-8.12;69.49
71948;BME280;63257;55.082;38.772;2023-11-22T08:26:19;99751.03;;;-8.12;70.07
71948;BME280;63257;55.082;38.772;2023-11-22T08:28:45;99762.13;;;-8.11;69.68
71948;BME280;63257;55.082;38.772;2023-11-22T08:31:11;99780.25;;;-8.02;69.72
71948;BME280;63257;55.082;38.772;2023-11-22T08:33:38;99753.69;;;-8.07;69.81
71948;BME280;63257;55.082;38.772;2023-11-22T08:36:07;99747.75;;;-8.05;70.19
71948;BME280;63257;55.082;38.772;2023-11-22T08:38:37;99761.56;;;-7.96;68.70
71948;BME280;63257;55.082;38.772;2023-11-22T08:41:07;99769.06;;;-8.07;69.61
71948;BME280;63257;55.082;38.772;2023-11-22T08:43:34;99737.00;;;-8.31;69.49
71948;BME280;63257;55.082;38.772;2023-11-22T08:46:01;99756.19;;;-8.10;68.96
71948;BME280;63257;55.082;38.772;2023-11-22T08:48:31;99761.16;;;-8.18;68.54
71948;BME280;63257;55.082;38.772;2023-11-22T08:50:57;99761.94;;;-8.22;68.51
71948;BME280;63257;55.082;38.772;2023-11-22T08:53:24;99772.19;;;-8.21;67.91
71948;BME280;63257;55.082;38.772;2023-11-22T08:55:51;99748.84;;;-8.36;67.83
71948;BME280;63257;55.082;38.772;2023-11-22T08:58:20;99770.44;;;-8.23;67.70
71948;BME280;63257;55.082;38.772;2023-11-22T09:00:47;99767.59;;;-8.37;67.50
71948;BME280;63257;55.082;38.772;2023-11-22T09:03:14;99755.78;;;-8.30;66.93
71948;BME280;63257;55.082;38.772;2023-11-22T09:05:40;99741.34;;;-8.28;66.77
71948;BME280;63257;55.082;38.772;2023-11-22T09:08:06;99732.34;;;-8.08;66.79
71948;BME280;63257;55.082;38.772;2023-11-22T09:10:33;99762.41;;;-7.97;65.92
71948;BME280;63257;55.082;38.772;2023-11-22T09:12:59;99760.75;;;-7.95;65.83
71948;BME280;63257;55.082;38.772;2023-11-22T09:15:25;99763.78;;;-7.68;65.14
71948;BME280;63257;55.082;38.772;2023-11-22T09:17:52;99760.53;;;-7.57;64.50
71948;BME280;63257;55.082;38.772;2023-11-22T09:20:19;99755.59;;;-7.46;64.56
71948;BME280;63257;55.082;38.772;2023-11-22T09:22:47;99766.06;;;-7.33;64.49
71948;BME280;63257;55.082;38.772;2023-11-22T09:25:20;99760.72;;;-7.48;65.22
71948;BME280;63257;55.082;38.772;2023-11-22T09:27:48;99760.94;;;-7.34;64.91
71948;BME280;63257;55.082;38.772;2023-11-22T09:30:16;99742.56;;;-7.59;65.36
71948;BME280;63257;55.082;38.772;2023-11-22T09:33:02;99777.34;;;-7.23;65.03
71948;BME280;63257;55.082;38.772;2023-11-22T09:35:28;99766.28;;;-7.19;65.15
71948;BME280;63257;55.082;38.772;2023-11-22T09:38:01;99767.56;;;-6.92;64.97
71948;BME280;63257;55.082;38.772;2023-11-22T09:40:28;99746.06;;;-7.00;64.72
71948;BME280;63257;55.082;38.772;2023-11-22T09:43:00;99749.28;;;-7.13;64.25
71948;BME280;63257;55.082;38.772;2023-11-22T09:45:29;99776.41;;;-6.71;64.05
71948;BME280;63257;55.082;38.772;2023-11-22T09:47:56;99756.56;;;-6.83;62.83
71948;BME280;63257;55.082;38.772;2023-11-22T09:53:32;99757.34;;;-6.89;63.64
71948;BME280;63257;55.082;38.772;2023-11-22T09:56:01;99779.19;;;-6.54;63.54
71948;BME280;63257;55.082;38.772;2023-11-22T09:58:30;99776.53;;;-6.63;63.54
71948;BME280;63257;55.082;38.772;2023-11-22T10:00:57;99757.88;;;-6.49;62.94
71948;BME280;63257;55.082;38.772;2023-11-22T10:03:23;99755.91;;;-6.70;62.96
71948;BME280;63257;55.082;38.772;2023-11-22T10:05:50;99762.19;;;-6.44;63.13
71948;BME280;63257;55.082;38.772;2023-11-22T10:08:18;99761.50;;;-6.34;62.68
71948;BME280;63257;55.082;38.772;2023-11-22T10:10:44;99752.72;;;-6.49;62.66
71948;BME280;63257;55.082;38.772;2023-11-22T10:13:13;99763.00;;;-6.50;62.43
71948;BME280;63257;55.082;38.772;2023-11-22T10:15:39;99766.38;;;-6.53;62.21
71948;BME280;63257;55.082;38.772;2023-11-22T10:18:05;99769.53;;;-6.72;62.61
71948;BME280;63257;55.082;38.772;2023-11-22T10:20:37;99746.13;;;-6.95;63.10
71948;BME280;63257;55.082;38.772;2023-11-22T10:23:03;99764.94;;;-6.96;63.00
71948;BME280;63257;55.082;38.772;2023-11-22T10:25:34;99773.66;;;-6.85;63.28
71948;BME280;63257;55.082;38.772;2023-11-22T10:28:00;99727.25;;;-7.01;63.55
71948;BME280;63257;55.082;38.772;2023-11-22T10:30:27;99756.69;;;-6.74;63.85
71948;BME280;63257;55.082;38.772;2023-11-22T10:32:54;99763.72;;;-6.60;62.95
71948;BME280;63257;55.082;38.772;2023-11-22T10:35:21;99772.16;;;-6.69;63.51
71948;BME280;63257;55.082;38.772;2023-11-22T10:37:48;99770.50;;;-6.66;63.74
71948;BME280;63257;55.082;38.772;2023-11-22T10:40:14;99780.72;;;-6.70;64.34
71948;BME280;63257;55.082;38.772;2023-11-22T10:42:41;99746.94;;;-6.98;65.00
71948;BME280;63257;55.082;38.772;2023-11-22T10:45:09;99763.47;;;-6.79;65.44
71948;BME280;63257;55.082;38.772;2023-11-22T10:47:38;99752.31;;;-6.81;65.40
71948;BME280;63257;55.082;38.772;2023-11-22T10:50:08;99734.25;;;-6.87;65.27
71948;BME280;63257;55.082;38.772;2023-11-22T10:52:36;99756.88;;;-6.58;64.52
71948;BME280;63257;55.082;38.772;2023-11-22T10:55:05;99748.97;;;-6.77;65.37
71948;BME280;63257;55.082;38.772;2023-11-22T10:57:42;99757.00;;;-6.51;65.25
71948;BME280;63257;55.082;38.772;2023-11-22T11:00:11;99735.38;;;-6.68;64.58
71948;BME280;63257;55.082;38.772;2023-11-22T11:02:44;99748.31;;;-6.60;65.08
71948;BME280;63257;55.082;38.772;2023-11-22T11:05:15;99735.03;;;-6.93;65.65
71948;BME280;63257;55.082;38.772;2023-11-22T11:07:49;99746.38;;;-6.78;66.21
71948;BME280;63257;55.082;38.772;2023-11-22T11:10:20;99746.97;;;-6.96;66.30
71948;BME280;63257;55.082;38.772;2023-11-22T11:12:48;99740.44;;;-6.74;66.78
71948;BME280;63257;55.082;38.772;2023-11-22T11:15:15;99710.59;;;-6.66;66.19
71948;BME280;63257;55.082;38.772;2023-11-22T11:17:44;99735.72;;;-6.40;65.99
71948;BME280;63257;55.082;38.772;2023-11-22T11:20:16;99738.03;;;-6.63;65.43
71948;BME280;63257;55.082;38.772;2023-11-22T11:22:43;99723.25;;;-6.80;65.73
71948;BME280;63257;55.082;38.772;2023-11-22T11:25:14;99731.19;;;-6.61;65.51
71948;BME280;63257;55.082;38.772;2023-11-22T11:27:41;99725.91;;;-6.71;65.56
71948;BME280;63257;55.082;38.772;2023-11-22T11:33:00;99730.84;;;-6.88;65.85
71948;BME280;63257;55.082;38.772;2023-11-22T11:35:42;99741.09;;;-6.89;66.48
71948;BME280;63257;55.082;38.772;2023-11-22T11:38:08;99714.28;;;-7.10;66.81
71948;BME280;63257;55.082;38.772;2023-11-22T11:40:35;99742.66;;;-6.99;67.16
71948;BME280;63257;55.082;38.772;2023-11-22T11:43:04;99736.94;;;-6.79;66.61
71948;BME280;63257;55.082;38.772;2023-11-22T11:45:30;99715.16;;;-7.08;66.89
71948;BME280;63257;55.082;38.772;2023-11-22T11:47:56;99716.94;;;-7.02;66.83
71948;BME280;63257;55.082;38.772;2023-11-22T11:50:22;99707.44;;;-7.09;66.69
71948;BME280;63257;55.082;38.772;2023-11-22T11:52:48;99743.16;;;-7.23;68.00
71948;BME280;63257;55.082;38.772;2023-11-22T11:55:14;99736.41;;;-7.18;67.55
71948;BME280;63257;55.082;38.772;2023-11-22T11:57:40;99708.88;;;-7.28;67.46
71948;BME280;63257;55.082;38.772;2023-11-22T12:00:08;99710.09;;;-7.05;67.11
71948;BME280;63257;55.082;38.772;2023-11-22T12:02:38;99731.81;;;-6.78;67.15
71948;BME280;63257;55.082;38.772;2023-11-22T12:05:04;99718.84;;;-6.87;66.44
71948;BME280;63257;55.082;38.772;2023-11-22T12:07:35;99719.59;;;-6.97;66.69
71948;BME280;63257;55.082;38.772;2023-11-22T12:10:03;99724.44;;;-7.16;67.16
71948;BME280;63257;55.082;38.772;2023-11-22T12:12:30;99720.41;;;-7.00;66.67
71948;BME280;63257;55.082;38.772;2023-11-22T12:14:56;99739.28;;;-6.96;67.19
71948;BME280;63257;55.082;38.772;2023-11-22T12:17:22;99718.63;;;-7.04;67.18
71948;BME280;63257;55.082;38.772;2023-11-22T12:19:48;99749.75;;;-6.83;66.67
71948;BME280;63257;55.082;38.772;2023-11-22T12:22:15;99745.47;;;-6.82;67.05
71948;BME280;63257;55.082;38.772;2023-11-22T12:24:42;99743.63;;;-6.92;66.82
71948;BME280;63257;55.082;38.772;2023-11-22T12:27:11;99696.00;;;-7.31;67.16
71948;BME280;63257;55.082;38.772;2023-11-22T12:29:37;99764.16;;;-6.92;67.81
71948;BME280;63257;55.082;38.772;2023-11-22T12:32:03;99744.84;;;-7.25;68.16
71948;BME280;63257;55.082;38.772;2023-11-22T12:34:29;99770.53;;;-7.22;68.03
71948;BME280;63257;55.082;38.772;2023-11-22T12:36:56;99766.88;;;-7.35;68.55
71948;BME280;63257;55.082;38.772;2023-11-22T12:39:22;99781.66;;;-7.20;68.84
71948;BME280;63257;55.082;38.772;2023-11-22T12:41:52;99768.81;;;-7.22;68.55
71948;BME280;63257;55.082;38.772;2023-11-22T12:44:18;99781.75;;;-7.17;68.35
71948;BME280;63257;55.082;38.772;2023-11-22T12:46:46;99777.44;;;-7.18;69.17
71948;BME280;63257;55.082;38.772;2023-11-22T12:49:17;99778.41;;;-7.10;68.63
71948;BME280;63257;55.082;38.772;2023-11-22T12:51:55;99782.59;;;-7.15;68.72
71948;BME280;63257;55.082;38.772;2023-11-22T12:54:22;99780.03;;;-7.15;68.89
71948;BME280;63257;55.082;38.772;2023-11-22T12:56:52;99765.59;;;-7.10;68.54